Time;durP1;ratioP1;P1;durP2;ratioP2;P2;SDS_P1;SDS_P2;PMS_P1;PMS_P2;Temp;Humidity;BMP_temperature;BMP_pressure;BME280_temperature;BME280_humidity;BME280_pressure;Samples;Min_cycle;Max_cycle;Signal;HPM_P1;HPM_P2
2021/06/20 00:00:19;;;;;;;14.52;7.47;;;24.00;99.90;;;;;;5058021;28;20527;-86
2021/06/20 00:02:47;;;;;;;15.57;7.60;;;24.00;99.90;;;;;;5065194;28;20946;-86
2021/06/20 00:05:24;;;;;;;16.67;7.97;;;24.20;99.90;;;;;;5047186;28;20136;-88
2021/06/20 00:07:51;;;;;;;15.15;7.75;;;24.20;99.90;;;;;;5066315;28;20048;-85
2021/06/20 00:10:21;;;;;;;15.32;8.77;;;24.00;99.90;;;;;;5047608;28;20086;-86
2021/06/20 00:12:49;;;;;;;14.45;8.65;;;24.00;99.90;;;;;;5058108;28;20323;-87
2021/06/20 00:15:19;;;;;;;12.10;8.30;;;23.90;99.90;;;;;;5063734;28;20048;-86
2021/06/20 00:17:47;;;;;;;15.80;8.88;;;23.70;99.90;;;;;;5060802;28;20048;-89
2021/06/20 00:20:21;;;;;;;18.60;9.38;;;23.70;99.90;;;;;;5066656;28;20036;-87
2021/06/20 00:22:50;;;;;;;18.52;9.27;;;23.60;99.90;;;;;;5066461;28;20045;-86
2021/06/20 00:25:18;;;;;;;20.83;10.25;;;23.50;99.90;;;;;;5063432;28;20119;-90
2021/06/20 00:27:45;;;;;;;15.95;9.32;;;23.50;99.90;;;;;;5046263;28;20037;-87
2021/06/20 00:30:15;;;;;;;17.00;9.48;;;23.50;99.90;;;;;;5063635;28;20128;-86
2021/06/20 00:32:44;;;;;;;15.65;9.05;;;23.50;99.90;;;;;;5055655;28;20399;-87
2021/06/20 00:35:11;;;;;;;15.57;8.93;;;23.50;99.90;;;;;;5060475;28;20123;-86
2021/06/20 00:37:38;;;;;;;19.17;9.82;;;23.40;99.90;;;;;;5047189;28;20048;-89
2021/06/20 00:40:07;;;;;;;16.58;9.48;;;23.50;99.90;;;;;;5034005;28;20066;-88
2021/06/20 00:42:34;;;;;;;17.50;9.63;;;23.50;99.90;;;;;;5059123;28;20127;-88
2021/06/20 00:45:03;;;;;;;21.92;10.07;;;23.70;99.90;;;;;;5046867;28;20094;-89
2021/06/20 00:47:30;;;;;;;22.73;8.77;;;23.80;99.90;;;;;;5069707;28;20297;-87
2021/06/20 00:49:57;;;;;;;26.17;10.07;;;23.90;99.90;;;;;;5038147;28;20072;-86
2021/06/20 00:52:26;;;;;;;35.08;9.10;;;24.00;99.90;;;;;;5063106;28;20243;-87
2021/06/20 00:54:56;;;;;;;36.33;9.98;;;24.10;99.90;;;;;;5059897;28;20410;-91
2021/06/20 00:57:23;;;;;;;38.10;9.52;;;24.20;99.90;;;;;;5058712;28;20066;-88
2021/06/20 00:59:51;;;;;;;41.55;9.25;;;24.40;99.90;;;;;;5064138;28;20052;-88
2021/06/20 01:02:20;;;;;;;33.70;10.18;;;24.60;99.90;;;;;;5049839;28;20054;-89
2021/06/20 01:04:50;;;;;;;42.80;9.23;;;24.70;99.90;;;;;;5049224;28;20059;-89
2021/06/20 01:07:19;;;;;;;42.67;8.82;;;24.70;99.90;;;;;;5055451;28;20127;-90
2021/06/20 01:09:48;;;;;;;48.28;9.65;;;24.70;99.90;;;;;;5063616;28;20048;-90
2021/06/20 01:12:16;;;;;;;52.08;10.00;;;24.70;99.90;;;;;;5059011;28;20051;-89
2021/06/20 01:14:44;;;;;;;38.50;8.88;;;24.60;99.90;;;;;;5063371;28;20048;-87
2021/06/20 01:17:12;;;;;;;38.78;9.23;;;24.60;99.90;;;;;;5045414;28;20056;-91
2021/06/20 01:19:41;;;;;;;39.08;10.15;;;24.60;99.90;;;;;;5066563;28;20118;-87
2021/06/20 01:22:38;;;;;;;35.75;9.40;;;24.50;99.90;;;;;;5028664;28;20056;-88
2021/06/20 01:25:10;;;;;;;39.80;9.52;;;24.40;99.90;;;;;;5034218;28;20049;-89
2021/06/20 01:27:40;;;;;;;43.95;9.82;;;24.30;99.90;;;;;;5046850;28;20140;-86
2021/06/20 01:30:12;;;;;;;39.80;9.02;;;24.30;99.90;;;;;;5062045;28;20113;-88
2021/06/20 01:32:41;;;;;;;44.33;9.88;;;24.30;99.90;;;;;;5063579;28;20068;-88
2021/06/20 01:35:13;;;;;;;49.15;9.57;;;24.20;99.90;;;;;;5059998;28;20481;-87
2021/06/20 01:37:43;;;;;;;38.65;8.70;;;24.20;99.90;;;;;;5059503;28;20052;-90
2021/06/20 01:40:15;;;;;;;42.05;9.52;;;24.20;99.90;;;;;;5048798;28;20060;-88
2021/06/20 01:42:43;;;;;;;31.83;8.68;;;24.20;99.90;;;;;;5058657;28;20084;-89
2021/06/20 01:45:15;;;;;;;47.67;9.55;;;24.10;99.90;;;;;;5049506;28;20048;-89
2021/06/20 01:47:43;;;;;;;37.67;8.43;;;24.10;99.90;;;;;;5065528;28;20055;-87
2021/06/20 01:50:15;;;;;;;45.80;9.75;;;24.10;99.90;;;;;;5054972;28;20049;-88
2021/06/20 01:52:42;;;;;;;44.20;8.60;;;24.00;99.90;;;;;;5061414;28;20128;-87
2021/06/20 01:55:12;;;;;;;46.80;9.00;;;23.90;99.90;;;;;;5054014;28;20119;-87
2021/06/20 01:57:42;;;;;;;49.00;9.75;;;23.80;99.90;;;;;;5063446;28;20049;-87
2021/06/20 02:00:12;;;;;;;38.38;9.05;;;23.80;99.90;;;;;;5060174;28;20152;-89
2021/06/20 02:02:39;;;;;;;36.47;8.98;;;23.70;99.90;;;;;;5048817;28;20059;-87
2021/06/20 02:05:07;;;;;;;37.83;9.48;;;23.60;99.90;;;;;;5069044;28;20478;-86
2021/06/20 02:07:36;;;;;;;46.75;8.90;;;23.60;99.90;;;;;;5066812;28;20079;-89
2021/06/20 02:10:07;;;;;;;40.33;8.88;;;23.50;99.90;;;;;;5066712;28;20060;-90
2021/06/20 02:12:37;;;;;;;40.58;9.65;;;23.40;99.90;;;;;;5043830;28;20044;-87
2021/06/20 02:15:06;;;;;;;32.75;8.30;;;23.40;99.90;;;;;;5052912;28;20049;-88
2021/06/20 02:17:34;;;;;;;45.38;9.80;;;23.40;99.90;;;;;;5062026;28;20132;-90
2021/06/20 02:20:15;;;;;;;42.03;9.52;;;23.30;99.90;;;;;;5055269;28;20378;-88
2021/06/20 02:22:43;;;;;;;50.67;8.73;;;23.30;99.90;;;;;;5063393;28;20044;-89
2021/06/20 02:25:15;;;;;;;36.63;8.77;;;23.20;99.90;;;;;;5061924;28;20079;-88
2021/06/20 02:27:47;;;;;;;38.17;8.68;;;23.10;99.90;;;;;;5047978;28;20116;-90
2021/06/20 02:30:16;;;;;;;33.45;8.57;;;23.10;99.90;;;;;;5070245;28;20151;-88
2021/06/20 02:32:44;;;;;;;50.42;9.63;;;23.10;99.90;;;;;;5063852;28;20436;-88
2021/06/20 02:35:12;;;;;;;38.55;8.68;;;23.00;99.90;;;;;;5061828;28;20059;-88
2021/06/20 02:37:45;;;;;;;38.10;8.52;;;22.90;99.90;;;;;;5046710;28;20105;-88
2021/06/20 02:40:13;;;;;;;44.53;9.25;;;22.90;99.90;;;;;;5071759;28;20298;-90
2021/06/20 02:42:40;;;;;;;39.65;9.13;;;22.90;99.90;;;;;;5064027;28;20361;-89
2021/06/20 02:45:09;;;;;;;47.63;9.68;;;22.80;99.90;;;;;;5064605;28;20123;-89
2021/06/20 02:47:36;;;;;;;36.00;8.75;;;22.80;99.90;;;;;;5045918;28;20072;-88
2021/06/20 02:50:06;;;;;;;35.97;9.88;;;22.80;99.90;;;;;;5048436;28;20131;-90
2021/06/20 02:52:35;;;;;;;39.00;9.13;;;22.80;99.90;;;;;;5063789;28;20076;-88
2021/06/20 02:55:04;;;;;;;34.95;8.25;;;22.80;99.90;;;;;;5052376;28;20127;-87
2021/06/20 02:57:35;;;;;;;41.70;9.00;;;22.80;99.90;;;;;;5060909;28;20599;-89
2021/06/20 03:00:03;;;;;;;37.40;8.65;;;22.70;99.90;;;;;;5052110;28;20159;-87
2021/06/20 03:02:31;;;;;;;45.83;9.48;;;22.70;99.90;;;;;;5069651;28;20048;-90
2021/06/20 03:05:01;;;;;;;34.28;9.00;;;22.60;99.90;;;;;;5065850;28;20143;-89
2021/06/20 03:07:28;;;;;;;41.92;9.80;;;22.60;99.90;;;;;;5073286;28;20132;-90
2021/06/20 03:09:57;;;;;;;32.83;9.40;;;22.50;99.90;;;;;;5052005;28;20044;-89
2021/06/20 03:12:25;;;;;;;36.85;9.13;;;22.60;99.90;;;;;;5053566;28;20055;-87
2021/06/20 03:14:53;;;;;;;37.28;8.40;;;22.60;99.90;;;;;;5047010;28;20047;-90
2021/06/20 03:17:20;;;;;;;34.25;7.75;;;22.60;99.90;;;;;;5043846;28;20128;-89
2021/06/20 03:19:51;;;;;;;36.22;8.45;;;22.60;99.90;;;;;;5036158;28;20487;-91
2021/06/20 03:22:18;;;;;;;34.65;8.50;;;22.60;99.90;;;;;;5054273;28;20049;-89
2021/06/20 03:24:49;;;;;;;31.75;8.48;;;22.60;99.90;;;;;;5055208;28;20054;-88
2021/06/20 03:27:18;;;;;;;31.75;8.32;;;22.60;99.90;;;;;;5067932;28;20067;-90
2021/06/20 03:29:46;;;;;;;37.50;8.20;;;22.60;99.90;;;;;;5062977;28;20068;-88
2021/06/20 03:32:15;;;;;;;40.75;8.43;;;22.60;99.90;;;;;;5067824;28;20048;-91
2021/06/20 03:34:42;;;;;;;28.40;7.03;;;22.50;99.90;;;;;;5045968;28;20235;-89
2021/06/20 03:37:12;;;;;;;37.88;8.85;;;22.30;99.90;;;;;;5060692;28;20218;-89
2021/06/20 03:39:44;;;;;;;29.05;7.95;;;22.20;99.90;;;;;;5068297;28;20161;-90
2021/06/20 03:42:11;;;;;;;33.95;8.57;;;22.10;99.90;;;;;;5059873;28;20064;-87
2021/06/20 03:44:41;;;;;;;32.72;8.32;;;22.10;99.90;;;;;;5044838;28;20107;-91
2021/06/20 03:47:09;;;;;;;35.00;9.18;;;22.10;99.90;;;;;;5063861;28;20045;-90
2021/06/20 03:49:40;;;;;;;36.15;8.00;;;22.00;99.90;;;;;;5066149;28;20040;-89
2021/06/20 03:52:08;;;;;;;35.00;8.47;;;22.00;99.90;;;;;;5046217;28;20486;-89
2021/06/20 03:54:35;;;;;;;36.15;8.05;;;21.90;99.90;;;;;;5046662;28;20283;-87
2021/06/20 03:57:05;;;;;;;32.92;8.43;;;21.70;99.90;;;;;;5061037;28;20451;-90
2021/06/20 03:59:32;;;;;;;41.53;8.82;;;21.70;99.90;;;;;;5044870;28;20132;-92
2021/06/20 04:02:01;;;;;;;33.60;7.82;;;21.70;99.90;;;;;;5048741;28;20063;-90
2021/06/20 04:04:28;;;;;;;32.55;7.75;;;21.80;99.90;;;;;;5056819;28;20071;-89
2021/06/20 04:06:55;;;;;;;21.50;7.18;;;21.80;99.90;;;;;;5063876;28;20051;-90
2021/06/20 04:09:24;;;;;;;25.00;6.20;;;21.90;99.90;;;;;;5045679;28;20128;-90
2021/06/20 04:11:54;;;;;;;25.33;6.47;;;22.00;99.90;;;;;;5045034;28;20469;-88
2021/06/20 04:14:24;;;;;;;19.63;6.18;;;22.00;99.90;;;;;;5065589;28;20125;-90
2021/06/20 04:16:53;;;;;;;26.90;6.55;;;22.00;99.90;;;;;;5048640;28;20052;-91
2021/06/20 04:19:21;;;;;;;21.88;6.00;;;22.00;99.90;;;;;;5061438;28;20128;-90
2021/06/20 04:21:48;;;;;;;18.60;5.45;;;22.00;99.90;;;;;;5037372;28;20147;-90
2021/06/20 04:24:14;;;;;;;21.13;5.53;;;22.00;99.90;;;;;;5058460;28;20128;-91
2021/06/20 04:26:44;;;;;;;24.63;5.70;;;22.10;99.90;;;;;;5037032;28;20047;-90
2021/06/20 04:29:13;;;;;;;27.40;5.70;;;22.10;99.90;;;;;;5048999;28;20067;-92
2021/06/20 04:31:40;;;;;;;22.75;5.43;;;22.10;99.90;;;;;;5031753;28;20375;-91
2021/06/20 04:34:07;;;;;;;25.40;6.18;;;22.10;99.90;;;;;;5065809;28;20120;-89
2021/06/20 04:36:34;;;;;;;27.88;5.80;;;22.10;99.90;;;;;;5060186;28;20134;-90
2021/06/20 04:39:02;;;;;;;18.35;5.05;;;22.10;99.90;;;;;;5065474;28;20371;-88
2021/06/20 04:41:30;;;;;;;22.13;4.93;;;22.10;99.90;;;;;;5061423;28;20307;-90
2021/06/20 04:43:59;;;;;;;20.90;5.10;;;22.20;99.90;;;;;;5056177;28;20432;-89
2021/06/20 04:46:36;;;;;;;16.95;4.60;;;22.20;99.90;;;;;;5045958;28;20048;-88
2021/06/20 04:49:13;;;;;;;19.42;5.45;;;22.20;99.90;;;;;;5052801;28;20063;-88
2021/06/20 04:51:41;;;;;;;17.63;5.00;;;22.10;99.90;;;;;;5042131;28;20521;-89
2021/06/20 04:54:11;;;;;;;25.05;5.07;;;22.20;99.90;;;;;;5053490;28;20506;-86
2021/06/20 04:56:55;;;;;;;18.20;5.00;;;22.10;99.90;;;;;;5054138;28;20057;-88
2021/06/20 04:59:25;;;;;;;18.77;4.72;;;22.20;99.90;;;;;;5051119;28;20127;-88
2021/06/20 05:01:59;;;;;;;18.55;3.97;;;22.20;99.90;;;;;;5032545;28;20052;-87
2021/06/20 05:04:28;;;;;;;18.05;4.80;;;22.30;99.90;;;;;;5036611;28;20044;-87
2021/06/20 05:06:55;;;;;;;20.88;3.97;;;22.30;99.90;;;;;;5062671;28;20059;-87
2021/06/20 05:09:22;;;;;;;16.13;4.35;;;22.40;99.90;;;;;;5046589;28;20405;-88
2021/06/20 05:11:51;;;;;;;18.10;4.63;;;22.30;99.90;;;;;;5064194;28;20071;-89
2021/06/20 05:14:18;;;;;;;19.75;4.28;;;22.20;99.90;;;;;;5042574;28;20045;-92
2021/06/20 05:16:45;;;;;;;19.27;4.70;;;22.30;99.90;;;;;;5051741;28;20139;-89
2021/06/20 05:19:16;;;;;;;18.48;4.13;;;22.30;99.90;;;;;;5047687;28;20082;-89
2021/06/20 05:21:44;;;;;;;22.33;5.30;;;22.30;99.90;;;;;;5038824;28;20076;-87
2021/06/20 05:24:13;;;;;;;17.05;3.85;;;22.40;99.90;;;;;;5047614;28;20416;-88
2021/06/20 05:26:41;;;;;;;12.23;4.28;;;22.30;99.90;;;;;;5056303;28;20088;-89
2021/06/20 05:29:08;;;;;;;20.73;4.65;;;22.20;99.90;;;;;;5041373;28;20053;-88
2021/06/20 05:31:41;;;;;;;13.68;3.92;;;22.10;99.90;;;;;;5036987;28;20072;-86
2021/06/20 05:34:10;;;;;;;17.35;4.50;;;22.00;99.90;;;;;;5045589;28;20102;-88
2021/06/20 05:36:38;;;;;;;19.35;4.10;;;21.90;99.90;;;;;;5049909;28;20091;-89
2021/06/20 05:39:05;;;;;;;19.55;4.30;;;21.80;99.90;;;;;;5063467;28;20044;-88
2021/06/20 05:41:46;;;;;;;14.48;4.20;;;21.80;99.90;;;;;;5061361;28;20048;-88
2021/06/20 05:45:00;;;;;;;15.32;4.00;;;21.80;99.90;;;;;;5020713;28;20067;-87
2021/06/20 05:47:46;;;;;;;18.30;4.25;;;21.80;99.90;;;;;;5025335;28;20098;-90
2021/06/20 05:50:36;;;;;;;14.93;4.82;;;21.80;99.90;;;;;;5014648;28;20077;-87
2021/06/20 05:53:08;;;;;;;14.82;4.05;;;21.80;99.90;;;;;;5011829;28;20348;-87
2021/06/20 05:55:36;;;;;;;17.58;4.45;;;21.80;99.90;;;;;;5027212;28;20147;-88
2021/06/20 05:58:03;;;;;;;13.40;3.97;;;21.70;99.90;;;;;;5027876;28;20136;-88
2021/06/20 06:00:30;;;;;;;18.23;5.10;;;21.80;99.90;;;;;;5028387;28;20360;-85
2021/06/20 06:02:59;;;;;;;11.02;3.53;;;22.00;99.90;;;;;;5010644;28;20157;-87
2021/06/20 06:05:31;;;;;;;17.55;4.60;;;22.20;99.90;;;;;;5043724;28;20131;-85
2021/06/20 06:08:21;;;;;;;16.88;4.55;;;22.40;99.90;;;;;;5025282;28;20084;-85
2021/06/20 06:10:53;;;;;;;16.63;4.32;;;22.60;99.90;;;;;;5062773;28;20060;-88
2021/06/20 06:13:43;;;;;;;12.05;3.60;;;22.70;99.90;;;;;;4992036;28;20089;-87
2021/06/20 06:16:12;;;;;;;12.35;4.18;;;22.80;99.90;;;;;;4992536;28;20065;-87
2021/06/20 06:18:39;;;;;;;15.45;4.38;;;22.80;99.90;;;;;;4984102;28;20101;-88
2021/06/20 06:21:23;;;;;;;11.85;4.45;;;22.80;99.90;;;;;;4997058;28;20200;-89
2021/06/20 06:23:50;;;;;;;17.25;4.72;;;22.80;99.90;;;;;;4972930;28;20050;-88
2021/06/20 06:26:18;;;;;;;15.75;4.32;;;22.70;99.90;;;;;;4989822;28;20042;-90
2021/06/20 06:28:46;;;;;;;14.68;4.45;;;22.70;99.90;;;;;;4972726;28;20072;-88
2021/06/20 06:31:13;;;;;;;16.05;4.00;;;22.70;99.90;;;;;;4997175;28;20098;-88
2021/06/20 06:34:15;;;;;;;16.60;4.13;;;22.70;99.90;;;;;;5052801;28;20130;-89
2021/06/20 06:36:54;;;;;;;17.30;4.00;;;22.80;99.90;;;;;;5036377;28;20045;-87
2021/06/20 06:39:31;;;;;;;14.50;4.15;;;23.00;99.90;;;;;;5042989;28;20071;-87
2021/06/20 06:41:58;;;;;;;20.67;4.70;;;23.00;99.90;;;;;;5051389;28;20055;-89
2021/06/20 06:44:29;;;;;;;14.18;4.45;;;22.90;99.90;;;;;;5047768;28;20044;-88
2021/06/20 06:47:31;;;;;;;22.50;4.60;;;23.10;99.90;;;;;;5044768;28;20077;-89
2021/06/20 06:50:15;;;;;;;15.15;4.07;;;23.00;99.90;;;;;;5008863;28;20049;-90
2021/06/20 06:52:47;;;;;;;14.90;3.85;;;23.10;99.90;;;;;;5037431;28;20537;-90
2021/06/20 06:55:18;;;;;;;14.73;4.18;;;23.10;99.90;;;;;;5043012;28;20211;-87
2021/06/20 06:57:48;;;;;;;18.77;4.18;;;23.20;99.90;;;;;;5071383;28;20123;-91
2021/06/20 07:00:26;;;;;;;11.23;4.05;;;23.10;99.90;;;;;;5046731;28;20085;-88
2021/06/20 07:03:06;;;;;;;15.38;3.70;;;23.10;99.90;;;;;;5047414;28;20048;-89
2021/06/20 07:06:11;;;;;;;;;;;;;;;;;;;;;
2021/06/20 07:09:22;;;;;;;12.02;3.75;;;23.10;99.90;;;;;;5065883;28;20037;-90
2021/06/20 07:11:49;;;;;;;12.07;3.20;;;23.30;99.90;;;;;;5053797;28;20059;-88
2021/06/20 07:14:46;;;;;;;13.73;3.63;;;23.60;99.90;;;;;;5041768;28;20072;-89
2021/06/20 07:17:35;;;;;;;12.55;3.25;;;24.20;99.90;;;;;;5039947;28;20056;-89
2021/06/20 07:20:15;;;;;;;10.95;2.78;;;24.70;99.90;;;;;;5049113;28;20151;-91
2021/06/20 07:23:16;;;;;;;12.38;3.47;;;25.30;99.90;;;;;;5055664;28;20040;-90
2021/06/20 07:25:45;;;;;;;14.90;3.47;;;25.60;99.90;;;;;;5070437;28;20102;-90
2021/06/20 07:28:25;;;;;;;13.25;3.42;;;25.60;99.90;;;;;;5047511;28;22233;-91
2021/06/20 07:31:00;;;;;;;8.05;2.70;;;25.40;99.90;;;;;;5045764;28;20040;-90
2021/06/20 07:33:31;;;;;;;14.63;3.42;;;25.20;99.90;;;;;;5044219;28;20135;-90
2021/06/20 07:35:59;;;;;;;13.73;3.47;;;25.10;99.90;;;;;;5066252;28;20045;-91
2021/06/20 07:38:26;;;;;;;12.90;3.38;;;25.00;99.90;;;;;;5049568;28;20052;-90
2021/06/20 07:40:57;;;;;;;11.40;3.63;;;24.80;99.90;;;;;;5066613;28;20079;-88
2021/06/20 07:43:25;;;;;;;13.68;3.47;;;24.70;99.90;;;;;;5053702;28;20049;-91
2021/06/20 07:45:55;;;;;;;14.63;3.45;;;24.70;99.90;;;;;;5050633;28;20044;-90
2021/06/20 07:48:24;;;;;;;15.82;3.95;;;24.80;99.90;;;;;;5036639;28;20040;-90
2021/06/20 07:50:54;;;;;;;15.32;3.50;;;25.00;99.90;;;;;;5050395;28;20123;-89
2021/06/20 07:53:24;;;;;;;8.23;2.60;;;25.00;99.90;;;;;;5048158;28;20055;-89
2021/06/20 07:55:51;;;;;;;11.68;3.10;;;25.00;99.90;;;;;;5051108;28;20364;-88
2021/06/20 07:58:20;;;;;;;13.10;3.20;;;25.10;99.90;;;;;;5054099;28;20052;-90
2021/06/20 08:00:48;;;;;;;10.52;2.65;;;25.00;99.90;;;;;;5039182;28;20137;-90
2021/06/20 08:03:24;;;;;;;17.17;3.28;;;24.90;99.90;;;;;;5053267;28;20100;-90
2021/06/20 08:05:55;;;;;;;10.65;2.97;;;24.90;99.90;;;;;;5041537;28;20414;-89
2021/06/20 08:08:25;;;;;;;10.60;3.40;;;24.90;99.90;;;;;;5030519;28;20041;-89
2021/06/20 08:10:53;;;;;;;14.02;3.67;;;24.80;99.90;;;;;;5061890;28;20698;-89
2021/06/20 08:13:20;;;;;;;13.30;3.67;;;24.50;99.90;;;;;;5058545;28;20133;-89
2021/06/20 08:15:47;;;;;;;12.65;3.42;;;24.40;99.90;;;;;;5059575;28;20076;-90
2021/06/20 08:18:17;;;;;;;13.05;3.17;;;24.40;99.90;;;;;;5045003;28;20635;-90
2021/06/20 08:20:55;;;;;;;12.70;3.85;;;24.50;99.90;;;;;;5043761;28;20044;-92
2021/06/20 08:23:22;;;;;;;11.15;3.03;;;24.70;99.90;;;;;;5066267;28;20086;-90
2021/06/20 08:25:49;;;;;;;10.52;3.38;;;24.90;99.90;;;;;;5035039;28;20048;-90
2021/06/20 08:28:19;;;;;;;13.65;2.53;;;25.00;99.90;;;;;;5052321;28;20461;-90
2021/06/20 08:30:50;;;;;;;12.15;3.53;;;25.00;98.20;;;;;;5053430;28;20044;-91
2021/06/20 08:33:18;;;;;;;15.00;3.38;;;24.90;99.20;;;;;;5068507;28;20463;-90
2021/06/20 08:35:49;;;;;;;10.80;3.03;;;25.00;98.80;;;;;;5068984;28;20059;-90
2021/06/20 08:38:16;;;;;;;8.18;2.72;;;25.40;99.90;;;;;;5035560;28;20051;-89
2021/06/20 08:40:43;;;;;;;12.38;2.53;;;25.80;98.10;;;;;;5044347;28;20461;-87
2021/06/20 08:43:10;;;;;;;9.88;2.80;;;26.10;95.90;;;;;;5060296;28;20048;-89
2021/06/20 08:45:38;;;;;;;8.88;2.55;;;26.10;95.10;;;;;;5052711;28;20131;-88
2021/06/20 08:48:10;;;;;;;11.75;2.85;;;25.70;95.60;;;;;;5068426;28;20048;-89
2021/06/20 08:50:37;;;;;;;12.15;2.70;;;25.80;95.40;;;;;;5066546;28;20131;-88
2021/06/20 08:53:04;;;;;;;7.70;2.65;;;25.60;95.30;;;;;;5033024;28;20080;-88
2021/06/20 08:55:33;;;;;;;10.95;2.63;;;25.60;94.00;;;;;;5022775;28;20080;-89
2021/06/20 08:58:17;;;;;;;10.65;2.60;;;25.40;94.30;;;;;;5025986;28;20435;-89
2021/06/20 09:00:44;;;;;;;11.35;2.83;;;25.30;93.40;;;;;;5020552;28;20448;-90
2021/06/20 09:03:13;;;;;;;8.15;2.47;;;25.30;93.00;;;;;;5025475;28;20049;-88
2021/06/20 09:05:40;;;;;;;7.50;2.40;;;25.40;91.80;;;;;;5022157;28;20051;-90
2021/06/20 09:08:16;;;;;;;9.82;2.53;;;25.70;91.40;;;;;;5020760;28;20055;-89
2021/06/20 09:10:43;;;;;;;10.18;2.20;;;25.90;91.00;;;;;;5023541;28;20045;-88
2021/06/20 09:13:12;;;;;;;16.40;3.05;;;26.20;90.70;;;;;;5018029;28;20124;-88
2021/06/20 09:15:41;;;;;;;12.50;2.78;;;26.30;90.20;;;;;;5024885;28;20056;-89
2021/06/20 09:18:10;;;;;;;9.27;2.65;;;26.10;91.00;;;;;;5027012;28;20049;-90
2021/06/20 09:20:40;;;;;;;9.27;2.25;;;26.30;90.00;;;;;;5026668;28;20045;-89
2021/06/20 09:23:12;;;;;;;9.93;2.75;;;26.10;89.40;;;;;;5024936;28;20061;-90
2021/06/20 09:25:41;;;;;;;7.90;2.33;;;26.10;90.10;;;;;;5024719;28;20053;-89
2021/06/20 09:28:13;;;;;;;8.45;2.53;;;25.90;90.00;;;;;;5034561;28;20041;-89
2021/06/20 09:30:51;;;;;;;13.68;2.70;;;26.30;91.10;;;;;;5029436;28;20129;-91
2021/06/20 09:33:20;;;;;;;11.77;3.05;;;26.70;90.00;;;;;;5031106;28;20167;-89
2021/06/20 09:35:52;;;;;;;9.10;3.10;;;27.00;85.40;;;;;;5032754;28;20057;-90
2021/06/20 09:38:20;;;;;;;;;;;27.10;85.50;;;;;;5024367;28;20056;-89
2021/06/20 09:40:51;;;;;;;8.20;2.47;;;27.20;82.10;;;;;;5021486;28;20024;-88
2021/06/20 09:43:19;;;;;;;7.03;2.50;;;27.20;84.40;;;;;;5028983;28;20124;-86
2021/06/20 09:45:48;;;;;;;9.43;2.17;;;27.40;81.00;;;;;;5028349;28;20143;-87
2021/06/20 09:48:29;;;;;;;10.25;2.63;;;27.50;79.70;;;;;;5021214;28;20069;-87
2021/06/20 09:50:59;;;;;;;10.82;2.80;;;27.70;82.60;;;;;;5029491;28;20132;-89
2021/06/20 09:53:40;;;;;;;8.82;2.53;;;28.10;77.60;;;;;;5048129;28;20076;-89
2021/06/20 09:56:15;;;;;;;11.10;2.30;;;27.90;77.70;;;;;;5069513;28;20125;-89
2021/06/20 09:58:44;;;;;;;8.00;2.40;;;27.60;79.00;;;;;;5053817;28;20123;-88
2021/06/20 10:01:38;;;;;;;7.82;2.10;;;27.40;77.70;;;;;;5032034;28;20131;-90
2021/06/20 10:04:43;;;;;;;5.15;1.75;;;27.30;74.40;;;;;;4972255;28;20070;-90
2021/06/20 10:07:30;;;;;;;6.25;2.15;;;27.10;74.30;;;;;;4972345;28;20058;-89
2021/06/20 10:10:01;;;;;;;12.75;1.70;;;27.10;74.70;;;;;;4966352;28;20050;-89
2021/06/20 10:12:30;;;;;;;10.85;1.95;;;27.40;69.80;;;;;;4989460;28;20074;-90
2021/06/20 10:15:21;;;;;;;;;;;;;;;;;;;;;
2021/06/20 10:18:12;;;;;;;7.57;1.80;;;27.50;70.90;;;;;;4971911;28;20482;-90
2021/06/20 10:20:42;;;;;;;6.60;2.15;;;27.50;69.90;;;;;;4973649;28;20081;-89
2021/06/20 10:23:23;;;;;;;10.90;2.50;;;27.70;72.00;;;;;;5047682;28;20124;-89
2021/06/20 10:25:51;;;;;;;7.70;2.28;;;27.40;70.10;;;;;;5065904;28;20071;-89
2021/06/20 10:28:30;;;;;;;8.65;2.25;;;27.30;71.40;;;;;;5064878;28;20106;-89
2021/06/20 10:31:08;;;;;;;8.88;1.92;;;27.20;70.20;;;;;;5064484;28;20083;-89
2021/06/20 10:33:37;;;;;;;9.13;2.00;;;27.00;72.90;;;;;;5046990;28;20487;-91
2021/06/20 10:36:10;;;;;;;5.57;1.88;;;26.80;70.30;;;;;;5065823;28;20524;-90
2021/06/20 10:38:41;;;;;;;6.55;1.90;;;27.20;70.00;;;;;;5052120;28;20060;-90
2021/06/20 10:41:20;;;;;;;7.25;1.95;;;27.70;71.20;;;;;;5038280;28;20045;-89
2021/06/20 10:44:00;;;;;;;6.38;1.80;;;28.20;66.80;;;;;;5054665;28;20061;-90
2021/06/20 10:46:28;;;;;;;6.32;2.08;;;28.00;65.40;;;;;;5062412;28;20148;-89
2021/06/20 10:48:58;;;;;;;4.65;1.55;;;28.10;67.40;;;;;;5061069;28;20102;-90
2021/06/20 10:51:26;;;;;;;10.20;2.05;;;29.00;67.70;;;;;;5072112;28;20101;-91
2021/06/20 10:53:53;;;;;;;9.07;2.20;;;29.90;62.90;;;;;;5049522;28;20568;-90
2021/06/20 10:56:40;;;;;;;6.72;2.03;;;30.80;63.70;;;;;;5062006;28;20075;-90
2021/06/20 10:59:07;;;;;;;8.65;2.00;;;31.80;59.20;;;;;;5072230;28;20118;-89
2021/06/20 11:01:42;;;;;;;8.85;1.90;;;32.20;56.30;;;;;;5072128;28;20140;-91
2021/06/20 11:04:11;;;;;;;6.43;1.60;;;31.50;56.10;;;;;;5074931;28;20056;-90
2021/06/20 11:06:54;;;;;;;13.15;2.50;;;31.30;55.80;;;;;;5044544;28;20412;-90
2021/06/20 11:09:22;;;;;;;7.10;2.13;;;30.90;56.10;;;;;;5073128;28;20055;-91
2021/06/20 11:11:52;;;;;;;7.43;2.35;;;30.50;56.50;;;;;;5062137;28;20104;-89
2021/06/20 11:14:20;;;;;;;9.75;2.15;;;30.00;58.10;;;;;;5066083;28;20459;-91
2021/06/20 11:16:51;;;;;;;9.70;2.20;;;30.70;57.80;;;;;;5056653;28;20142;-93
2021/06/20 11:19:25;;;;;;;8.23;2.50;;;31.70;58.10;;;;;;5074561;28;20098;-91
2021/06/20 11:22:07;;;;;;;10.82;2.28;;;32.50;56.80;;;;;;5073385;28;20052;-90
2021/06/20 11:24:37;;;;;;;;;;;33.00;52.00;;;;;;5067428;28;20068;-89
2021/06/20 11:27:08;;;;;;;11.15;3.13;;;32.50;52.90;;;;;;5050939;28;19964;-91
2021/06/20 11:29:59;;;;;;;9.38;2.33;;;32.10;53.30;;;;;;5066533;28;20063;-91
2021/06/20 11:32:31;;;;;;;13.38;2.47;;;31.90;54.30;;;;;;5053629;28;20121;-90
2021/06/20 11:35:04;;;;;;;15.75;3.05;;;32.30;53.90;;;;;;5063329;28;20041;-90
2021/06/20 11:37:32;;;;;;;12.27;3.13;;;31.90;51.90;;;;;;5056052;28;20446;-90
2021/06/20 11:40:19;;;;;;;26.65;3.70;;;32.40;52.60;;;;;;5053517;28;20052;-91
2021/06/20 11:42:49;;;;;;;20.73;4.07;;;33.50;50.70;;;;;;5047296;28;20126;-89
2021/06/20 11:45:23;;;;;;;18.92;4.22;;;34.40;47.30;;;;;;5068624;28;20452;-88
2021/06/20 11:48:00;;;;;;;22.85;3.72;;;34.50;47.00;;;;;;5051441;28;20045;-89
2021/06/20 11:50:32;;;;;;;19.92;3.60;;;33.90;48.80;;;;;;5054733;28;20471;-88
2021/06/20 11:53:06;;;;;;;19.38;4.25;;;33.10;47.60;;;;;;5051589;28;20056;-89
2021/06/20 11:55:44;;;;;;;17.92;3.70;;;33.30;50.90;;;;;;5060553;28;20079;-90
2021/06/20 11:58:23;;;;;;;18.13;3.33;;;34.30;47.00;;;;;;5049351;28;20110;-90
2021/06/20 12:01:00;;;;;;;22.02;3.65;;;34.80;46.00;;;;;;5030454;28;20059;-89
2021/06/20 12:04:21;;;;;;;;;;;;;;;;;;;;;
2021/06/20 12:07:11;;;;;;;21.02;3.83;;;36.70;43.70;;;;;;5054250;28;20056;-87
2021/06/20 12:09:48;;;;;;;26.15;4.30;;;35.60;44.10;;;;;;5066337;28;20460;-89
2021/06/20 12:12:17;;;;;;;22.98;4.55;;;34.90;44.30;;;;;;5057638;28;20049;-87
2021/06/20 12:15:00;;;;;;;21.45;4.15;;;34.10;44.20;;;;;;5060174;28;20152;-88
2021/06/20 12:17:28;;;;;;;22.25;4.72;;;34.30;45.00;;;;;;5063618;28;20060;-88
2021/06/20 12:19:57;;;;;;;26.85;4.35;;;33.80;46.60;;;;;;5057436;28;20051;-90
2021/06/20 12:22:59;;;;;;;24.45;4.80;;;33.80;47.60;;;;;;4975654;28;20076;-89
2021/06/20 12:25:50;;;;;;;22.60;5.15;;;35.10;44.90;;;;;;5023023;28;20087;-90
2021/06/20 12:28:30;;;;;;;27.58;5.10;;;35.90;43.10;;;;;;5059076;28;20048;-89
2021/06/20 12:31:12;;;;;;;22.65;4.20;;;35.80;42.90;;;;;;5037092;28;20048;-87
2021/06/20 12:33:57;;;;;;;23.23;4.47;;;36.20;42.10;;;;;;5065884;28;20045;-89
2021/06/20 12:37:02;;;;;;;29.52;5.60;;;36.40;40.50;;;;;;4994649;28;20133;-88
2021/06/20 12:39:47;;;;;;;21.33;5.15;;;36.70;41.60;;;;;;4989923;28;20043;-89
2021/06/20 12:42:15;;;;;;;31.40;5.00;;;36.60;41.60;;;;;;5000842;28;20641;-88
2021/06/20 12:46:17;;;;;;;;;;;;;;;;;;;;;
2021/06/20 12:51:39;;;;;;;32.22;5.40;;;36.10;40.30;;;;;;4993161;28;20059;-90
2021/06/20 12:54:17;;;;;;;34.58;5.80;;;35.00;42.60;;;;;;5021309;28;20117;-90
2021/06/20 12:57:06;;;;;;;25.92;5.65;;;35.20;41.20;;;;;;5021743;28;20480;-91
2021/06/20 12:59:44;;;;;;;28.08;5.68;;;35.50;42.40;;;;;;5055364;28;20080;-91
2021/06/20 13:02:23;;;;;;;24.23;5.43;;;36.10;40.10;;;;;;5043905;28;20432;-90
2021/06/20 13:05:07;;;;;;;27.25;5.50;;;36.30;40.90;;;;;;5055466;28;20057;-90
2021/06/20 13:07:40;;;;;;;24.48;4.90;;;36.70;39.60;;;;;;5046042;28;20041;-91
2021/06/20 13:10:13;;;;;;;25.40;5.78;;;36.70;39.60;;;;;;5048555;28;20058;-90
2021/06/20 13:12:40;;;;;;;27.75;5.50;;;36.70;40.70;;;;;;5050245;28;20056;-91
2021/06/20 13:15:15;;;;;;;26.38;4.95;;;36.00;41.40;;;;;;5047615;28;20127;-90